sensor_id;sensor_type;location;lat;lon;timestamp;P1;durP1;ratioP1;P2;durP2;ratioP2
24961;SDS011;12992;50.884;13.668;2023-01-23T00:01:31;35.05;;;15.65;;
24961;SDS011;12992;50.884;13.668;2023-01-23T00:03:58;31.67;;;15.55;;
24961;SDS011;12992;50.884;13.668;2023-01-23T00:06:24;85.30;;;17.13;;
24961;SDS011;12992;50.884;13.668;2023-01-23T00:08:51;33.33;;;15.18;;
24961;SDS011;12992;50.884;13.668;2023-01-23T00:11:21;34.85;;;16.55;;
24961;SDS011;12992;50.884;13.668;2023-01-23T00:13:49;32.53;;;14.75;;
24961;SDS011;12992;50.884;13.668;2023-01-23T00:16:16;33.30;;;15.07;;
24961;SDS011;12992;50.884;13.668;2023-01-23T00:18:43;32.30;;;15.20;;
24961;SDS011;12992;50.884;13.668;2023-01-23T00:21:11;39.15;;;15.25;;
24961;SDS011;12992;50.884;13.668;2023-01-23T00:23:40;33.20;;;15.35;;
24961;SDS011;12992;50.884;13.668;2023-01-23T00:26:09;84.95;;;17.83;;
24961;SDS011;12992;50.884;13.668;2023-01-23T00:28:37;35.40;;;15.43;;
24961;SDS011;12992;50.884;13.668;2023-01-23T00:31:08;74.55;;;17.08;;
24961;SDS011;12992;50.884;13.668;2023-01-23T00:33:40;40.72;;;15.00;;
24961;SDS011;12992;50.884;13.668;2023-01-23T00:36:07;76.30;;;16.30;;
24961;SDS011;12992;50.884;13.668;2023-01-23T00:38:33;49.15;;;15.32;;
24961;SDS011;12992;50.884;13.668;2023-01-23T00:40:59;41.22;;;15.23;;
24961;SDS011;12992;50.884;13.668;2023-01-23T00:43:26;76.45;;;15.52;;
24961;SDS011;12992;50.884;13.668;2023-01-23T00:45:52;37.28;;;14.07;;
24961;SDS011;12992;50.884;13.668;2023-01-23T00:48:17;102.65;;;15.45;;
24961;SDS011;12992;50.884;13.668;2023-01-23T00:50:42;78.57;;;15.45;;
24961;SDS011;12992;50.884;13.668;2023-01-23T00:53:08;41.15;;;14.82;;
24961;SDS011;12992;50.884;13.668;2023-01-23T00:55:33;71.43;;;15.15;;
24961;SDS011;12992;50.884;13.668;2023-01-23T00:57:59;28.55;;;14.10;;
24961;SDS011;12992;50.884;13.668;2023-01-23T01:00:24;29.00;;;13.63;;
24961;SDS011;12992;50.884;13.668;2023-01-23T01:02:50;74.60;;;15.75;;
24961;SDS011;12992;50.884;13.668;2023-01-23T01:05:15;217.25;;;19.00;;
24961;SDS011;12992;50.884;13.668;2023-01-23T01:07:42;32.00;;;13.20;;
24961;SDS011;12992;50.884;13.668;2023-01-23T01:10:08;48.75;;;15.85;;
24961;SDS011;12992;50.884;13.668;2023-01-23T01:12:36;75.35;;;15.15;;
24961;SDS011;12992;50.884;13.668;2023-01-23T01:15:02;53.90;;;15.10;;
24961;SDS011;12992;50.884;13.668;2023-01-23T01:17:28;53.00;;;14.63;;
24961;SDS011;12992;50.884;13.668;2023-01-23T01:19:53;27.35;;;13.15;;
24961;SDS011;12992;50.884;13.668;2023-01-23T01:22:18;71.88;;;15.70;;
24961;SDS011;12992;50.884;13.668;2023-01-23T01:24:44;49.90;;;15.00;;
24961;SDS011;12992;50.884;13.668;2023-01-23T01:27:09;92.25;;;16.75;;
24961;SDS011;12992;50.884;13.668;2023-01-23T01:29:35;77.20;;;15.88;;
24961;SDS011;12992;50.884;13.668;2023-01-23T01:32:00;60.33;;;15.07;;
24961;SDS011;12992;50.884;13.668;2023-01-23T01:34:26;72.05;;;15.30;;
24961;SDS011;12992;50.884;13.668;2023-01-23T01:36:51;89.70;;;17.10;;
24961;SDS011;12992;50.884;13.668;2023-01-23T01:39:17;42.00;;;13.55;;
24961;SDS011;12992;50.884;13.668;2023-01-23T01:41:43;135.18;;;17.13;;
24961;SDS011;12992;50.884;13.668;2023-01-23T01:44:16;140.07;;;16.90;;
24961;SDS011;12992;50.884;13.668;2023-01-23T01:46:44;99.57;;;16.65;;
24961;SDS011;12992;50.884;13.668;2023-01-23T01:54:20;70.45;;;14.30;;
24961;SDS011;12992;50.884;13.668;2023-01-23T01:56:54;58.53;;;15.68;;
24961;SDS011;12992;50.884;13.668;2023-01-23T01:59:24;40.05;;;15.02;;
24961;SDS011;12992;50.884;13.668;2023-01-23T02:01:52;31.45;;;13.82;;
24961;SDS011;12992;50.884;13.668;2023-01-23T02:04:30;187.00;;;17.92;;
24961;SDS011;12992;50.884;13.668;2023-01-23T02:06:57;99.70;;;15.80;;
24961;SDS011;12992;50.884;13.668;2023-01-23T02:09:27;84.97;;;15.20;;
24961;SDS011;12992;50.884;13.668;2023-01-23T02:11:52;154.15;;;16.67;;
24961;SDS011;12992;50.884;13.668;2023-01-23T02:18:05;78.72;;;15.65;;
24961;SDS011;12992;50.884;13.668;2023-01-23T02:20:30;45.38;;;13.88;;
24961;SDS011;12992;50.884;13.668;2023-01-23T02:28:31;88.38;;;16.30;;
24961;SDS011;12992;50.884;13.668;2023-01-23T02:31:01;104.60;;;14.60;;
24961;SDS011;12992;50.884;13.668;2023-01-23T02:35:54;72.47;;;14.35;;
24961;SDS011;12992;50.884;13.668;2023-01-23T02:38:21;150.25;;;16.27;;
24961;SDS011;12992;50.884;13.668;2023-01-23T02:40:53;93.75;;;15.52;;
24961;SDS011;12992;50.884;13.668;2023-01-23T02:43:25;54.33;;;14.60;;
24961;SDS011;12992;50.884;13.668;2023-01-23T02:46:03;38.75;;;13.00;;
24961;SDS011;12992;50.884;13.668;2023-01-23T02:48:29;34.13;;;13.55;;
24961;SDS011;12992;50.884;13.668;2023-01-23T02:50:57;89.30;;;15.90;;
24961;SDS011;12992;50.884;13.668;2023-01-23T02:53:22;57.90;;;13.20;;
24961;SDS011;12992;50.884;13.668;2023-01-23T02:55:50;114.00;;;14.48;;
24961;SDS011;12992;50.884;13.668;2023-01-23T02:58:17;118.93;;;15.77;;
24961;SDS011;12992;50.884;13.668;2023-01-23T03:01:01;108.43;;;15.38;;
24961;SDS011;12992;50.884;13.668;2023-01-23T03:03:27;57.88;;;13.52;;
24961;SDS011;12992;50.884;13.668;2023-01-23T03:05:53;128.73;;;14.45;;
24961;SDS011;12992;50.884;13.668;2023-01-23T03:08:19;105.40;;;17.10;;
24961;SDS011;12992;50.884;13.668;2023-01-23T03:10:45;189.57;;;16.90;;
24961;SDS011;12992;50.884;13.668;2023-01-23T03:13:10;33.97;;;13.95;;
24961;SDS011;12992;50.884;13.668;2023-01-23T03:15:36;42.28;;;13.43;;
24961;SDS011;12992;50.884;13.668;2023-01-23T03:18:06;32.08;;;13.15;;
24961;SDS011;12992;50.884;13.668;2023-01-23T03:20:39;44.70;;;14.60;;
24961;SDS011;12992;50.884;13.668;2023-01-23T03:23:05;50.67;;;14.82;;
24961;SDS011;12992;50.884;13.668;2023-01-23T03:25:31;118.05;;;15.18;;
24961;SDS011;12992;50.884;13.668;2023-01-23T03:27:57;94.97;;;14.57;;
24961;SDS011;12992;50.884;13.668;2023-01-23T03:30:22;121.32;;;13.88;;
24961;SDS011;12992;50.884;13.668;2023-01-23T03:32:50;85.57;;;14.60;;
24961;SDS011;12992;50.884;13.668;2023-01-23T03:35:16;36.65;;;13.23;;
24961;SDS011;12992;50.884;13.668;2023-01-23T03:37:47;116.07;;;16.10;;
24961;SDS011;12992;50.884;13.668;2023-01-23T03:40:15;57.70;;;14.30;;
24961;SDS011;12992;50.884;13.668;2023-01-23T03:42:59;78.28;;;14.02;;
24961;SDS011;12992;50.884;13.668;2023-01-23T03:45:26;123.55;;;13.93;;
24961;SDS011;12992;50.884;13.668;2023-01-23T03:47:52;71.85;;;13.95;;
24961;SDS011;12992;50.884;13.668;2023-01-23T03:50:18;76.57;;;14.30;;
24961;SDS011;12992;50.884;13.668;2023-01-23T03:52:43;72.40;;;13.93;;
24961;SDS011;12992;50.884;13.668;2023-01-23T03:55:09;31.75;;;12.35;;
24961;SDS011;12992;50.884;13.668;2023-01-23T03:57:35;55.13;;;13.90;;
24961;SDS011;12992;50.884;13.668;2023-01-23T04:00:12;51.20;;;12.65;;
24961;SDS011;12992;50.884;13.668;2023-01-23T04:02:44;52.28;;;13.10;;
24961;SDS011;12992;50.884;13.668;2023-01-23T04:05:12;55.63;;;12.65;;
24961;SDS011;12992;50.884;13.668;2023-01-23T04:07:37;89.32;;;14.30;;
24961;SDS011;12992;50.884;13.668;2023-01-23T04:10:03;28.33;;;12.15;;
24961;SDS011;12992;50.884;13.668;2023-01-23T04:12:28;48.47;;;13.50;;
24961;SDS011;12992;50.884;13.668;2023-01-23T04:14:54;135.00;;;15.57;;
24961;SDS011;12992;50.884;13.668;2023-01-23T04:17:19;49.40;;;12.80;;
24961;SDS011;12992;50.884;13.668;2023-01-23T04:19:44;69.40;;;13.27;;
24961;SDS011;12992;50.884;13.668;2023-01-23T04:22:10;43.85;;;12.57;;
24961;SDS011;12992;50.884;13.668;2023-01-23T04:24:41;56.22;;;13.35;;
24961;SDS011;12992;50.884;13.668;2023-01-23T04:27:07;29.00;;;12.15;;
24961;SDS011;12992;50.884;13.668;2023-01-23T04:29:33;44.20;;;12.88;;
24961;SDS011;12992;50.884;13.668;2023-01-23T04:32:00;92.18;;;14.85;;
24961;SDS011;12992;50.884;13.668;2023-01-23T04:34:27;128.02;;;13.95;;
24961;SDS011;12992;50.884;13.668;2023-01-23T04:36:53;88.10;;;13.77;;
24961;SDS011;12992;50.884;13.668;2023-01-23T04:39:19;165.40;;;15.85;;
24961;SDS011;12992;50.884;13.668;2023-01-23T04:41:46;174.35;;;16.52;;
24961;SDS011;12992;50.884;13.668;2023-01-23T04:44:24;85.45;;;15.02;;
24961;SDS011;12992;50.884;13.668;2023-01-23T04:47:20;68.50;;;13.35;;
24961;SDS011;12992;50.884;13.668;2023-01-23T04:49:46;83.65;;;14.40;;
24961;SDS011;12992;50.884;13.668;2023-01-23T04:52:12;45.10;;;13.25;;
24961;SDS011;12992;50.884;13.668;2023-01-23T04:54:42;56.65;;;13.80;;
24961;SDS011;12992;50.884;13.668;2023-01-23T04:57:07;137.88;;;15.65;;
24961;SDS011;12992;50.884;13.668;2023-01-23T04:59:33;54.08;;;14.18;;
24961;SDS011;12992;50.884;13.668;2023-01-23T05:01:58;42.58;;;13.45;;
24961;SDS011;12992;50.884;13.668;2023-01-23T05:04:31;50.13;;;12.68;;
24961;SDS011;12992;50.884;13.668;2023-01-23T05:06:57;34.15;;;12.52;;
24961;SDS011;12992;50.884;13.668;2023-01-23T05:09:23;171.85;;;16.70;;
24961;SDS011;12992;50.884;13.668;2023-01-23T05:11:50;285.05;;;19.13;;
24961;SDS011;12992;50.884;13.668;2023-01-23T05:14:16;35.60;;;12.50;;
24961;SDS011;12992;50.884;13.668;2023-01-23T05:16:45;228.45;;;17.73;;
24961;SDS011;12992;50.884;13.668;2023-01-23T05:19:16;133.85;;;16.05;;
24961;SDS011;12992;50.884;13.668;2023-01-23T05:21:42;91.40;;;15.65;;
24961;SDS011;12992;50.884;13.668;2023-01-23T05:24:12;73.15;;;14.00;;
24961;SDS011;12992;50.884;13.668;2023-01-23T05:26:37;60.30;;;14.73;;
24961;SDS011;12992;50.884;13.668;2023-01-23T05:29:03;67.28;;;12.88;;
24961;SDS011;12992;50.884;13.668;2023-01-23T05:31:29;138.95;;;16.55;;
24961;SDS011;12992;50.884;13.668;2023-01-23T05:34:27;200.55;;;17.20;;
24961;SDS011;12992;50.884;13.668;2023-01-23T05:36:52;184.52;;;17.13;;
24961;SDS011;12992;50.884;13.668;2023-01-23T05:39:17;98.75;;;16.52;;
24961;SDS011;12992;50.884;13.668;2023-01-23T05:41:43;226.18;;;18.15;;
24961;SDS011;12992;50.884;13.668;2023-01-23T05:44:28;62.45;;;14.27;;
24961;SDS011;12992;50.884;13.668;2023-01-23T05:47:01;50.38;;;13.68;;
24961;SDS011;12992;50.884;13.668;2023-01-23T05:49:27;93.45;;;14.30;;
24961;SDS011;12992;50.884;13.668;2023-01-23T05:51:52;66.72;;;13.82;;
24961;SDS011;12992;50.884;13.668;2023-01-23T05:54:17;38.47;;;13.45;;
24961;SDS011;12992;50.884;13.668;2023-01-23T05:56:45;33.25;;;13.77;;
24961;SDS011;12992;50.884;13.668;2023-01-23T05:59:30;89.88;;;13.38;;
24961;SDS011;12992;50.884;13.668;2023-01-23T06:02:16;48.72;;;13.07;;
24961;SDS011;12992;50.884;13.668;2023-01-23T06:05:00;56.58;;;13.10;;
24961;SDS011;12992;50.884;13.668;2023-01-23T06:07:39;76.18;;;14.30;;
24961;SDS011;12992;50.884;13.668;2023-01-23T06:10:07;56.42;;;14.23;;
24961;SDS011;12992;50.884;13.668;2023-01-23T06:12:32;62.47;;;15.10;;
24961;SDS011;12992;50.884;13.668;2023-01-23T06:14:58;37.65;;;13.48;;
24961;SDS011;12992;50.884;13.668;2023-01-23T06:17:23;51.85;;;13.68;;
24961;SDS011;12992;50.884;13.668;2023-01-23T06:19:49;37.20;;;16.75;;
24961;SDS011;12992;50.884;13.668;2023-01-23T06:22:15;104.93;;;16.65;;
24961;SDS011;12992;50.884;13.668;2023-01-23T06:24:56;160.25;;;15.90;;
24961;SDS011;12992;50.884;13.668;2023-01-23T06:27:22;43.63;;;15.23;;
24961;SDS011;12992;50.884;13.668;2023-01-23T06:29:50;92.47;;;16.67;;
24961;SDS011;12992;50.884;13.668;2023-01-23T06:32:15;169.05;;;17.70;;
24961;SDS011;12992;50.884;13.668;2023-01-23T06:34:41;258.48;;;20.33;;
24961;SDS011;12992;50.884;13.668;2023-01-23T06:37:08;97.53;;;15.70;;
24961;SDS011;12992;50.884;13.668;2023-01-23T06:39:34;192.35;;;18.60;;
24961;SDS011;12992;50.884;13.668;2023-01-23T06:42:00;121.82;;;17.05;;
24961;SDS011;12992;50.884;13.668;2023-01-23T06:44:25;61.38;;;15.35;;
24961;SDS011;12992;50.884;13.668;2023-01-23T06:46:52;102.80;;;16.33;;
24961;SDS011;12992;50.884;13.668;2023-01-23T06:49:19;175.32;;;17.85;;
24961;SDS011;12992;50.884;13.668;2023-01-23T06:51:45;54.90;;;15.15;;
24961;SDS011;12992;50.884;13.668;2023-01-23T06:54:11;63.35;;;14.93;;
24961;SDS011;12992;50.884;13.668;2023-01-23T06:56:37;205.10;;;19.13;;
24961;SDS011;12992;50.884;13.668;2023-01-23T06:59:05;40.92;;;13.52;;
24961;SDS011;12992;50.884;13.668;2023-01-23T07:01:31;134.98;;;16.35;;
24961;SDS011;12992;50.884;13.668;2023-01-23T07:04:20;73.60;;;14.65;;
24961;SDS011;12992;50.884;13.668;2023-01-23T07:06:48;79.68;;;15.27;;
24961;SDS011;12992;50.884;13.668;2023-01-23T07:09:15;64.78;;;15.35;;
24961;SDS011;12992;50.884;13.668;2023-01-23T07:11:46;81.00;;;15.73;;
24961;SDS011;12992;50.884;13.668;2023-01-23T07:14:12;185.02;;;19.02;;
24961;SDS011;12992;50.884;13.668;2023-01-23T07:16:39;63.22;;;15.55;;
24961;SDS011;12992;50.884;13.668;2023-01-23T07:19:04;56.22;;;14.75;;
24961;SDS011;12992;50.884;13.668;2023-01-23T07:21:32;228.07;;;19.65;;
24961;SDS011;12992;50.884;13.668;2023-01-23T07:23:57;76.68;;;15.60;;
24961;SDS011;12992;50.884;13.668;2023-01-23T07:26:23;149.45;;;17.92;;
24961;SDS011;12992;50.884;13.668;2023-01-23T07:28:48;78.97;;;16.02;;
24961;SDS011;12992;50.884;13.668;2023-01-23T07:31:13;64.38;;;16.13;;
24961;SDS011;12992;50.884;13.668;2023-01-23T07:33:39;41.60;;;14.95;;
24961;SDS011;12992;50.884;13.668;2023-01-23T07:36:04;191.68;;;18.52;;
24961;SDS011;12992;50.884;13.668;2023-01-23T07:38:31;43.22;;;15.93;;
24961;SDS011;12992;50.884;13.668;2023-01-23T07:40:57;146.77;;;17.52;;
24961;SDS011;12992;50.884;13.668;2023-01-23T07:43:23;91.43;;;15.98;;
24961;SDS011;12992;50.884;13.668;2023-01-23T07:45:49;34.28;;;13.68;;
24961;SDS011;12992;50.884;13.668;2023-01-23T07:48:14;34.75;;;14.43;;
24961;SDS011;12992;50.884;13.668;2023-01-23T07:50:39;61.63;;;15.45;;
24961;SDS011;12992;50.884;13.668;2023-01-23T07:53:05;87.72;;;14.73;;
24961;SDS011;12992;50.884;13.668;2023-01-23T07:55:31;39.60;;;14.45;;
24961;SDS011;12992;50.884;13.668;2023-01-23T07:57:56;46.95;;;13.40;;
24961;SDS011;12992;50.884;13.668;2023-01-23T08:00:22;56.65;;;14.70;;
24961;SDS011;12992;50.884;13.668;2023-01-23T08:02:47;29.63;;;13.23;;
24961;SDS011;12992;50.884;13.668;2023-01-23T08:05:13;58.28;;;13.27;;
24961;SDS011;12992;50.884;13.668;2023-01-23T08:07:38;31.95;;;14.50;;
24961;SDS011;12992;50.884;13.668;2023-01-23T08:10:04;39.08;;;14.38;;
24961;SDS011;12992;50.884;13.668;2023-01-23T08:12:30;57.35;;;15.88;;
24961;SDS011;12992;50.884;13.668;2023-01-23T08:14:55;78.15;;;15.82;;
24961;SDS011;12992;50.884;13.668;2023-01-23T08:17:20;102.70;;;15.80;;
24961;SDS011;12992;50.884;13.668;2023-01-23T08:19:46;41.05;;;14.40;;
24961;SDS011;12992;50.884;13.668;2023-01-23T08:22:11;98.00;;;15.05;;
24961;SDS011;12992;50.884;13.668;2023-01-23T08:24:36;141.90;;;17.55;;
24961;SDS011;12992;50.884;13.668;2023-01-23T08:27:02;41.95;;;16.55;;
24961;SDS011;12992;50.884;13.668;2023-01-23T08:29:27;120.25;;;17.00;;
24961;SDS011;12992;50.884;13.668;2023-01-23T08:31:52;46.88;;;15.75;;
24961;SDS011;12992;50.884;13.668;2023-01-23T08:34:19;46.13;;;16.77;;
24961;SDS011;12992;50.884;13.668;2023-01-23T08:36:45;54.55;;;15.48;;
24961;SDS011;12992;50.884;13.668;2023-01-23T08:39:11;60.28;;;16.27;;
24961;SDS011;12992;50.884;13.668;2023-01-23T08:41:36;55.20;;;15.68;;
24961;SDS011;12992;50.884;13.668;2023-01-23T08:44:01;38.83;;;15.68;;
24961;SDS011;12992;50.884;13.668;2023-01-23T08:46:27;56.83;;;15.88;;
24961;SDS011;12992;50.884;13.668;2023-01-23T08:48:53;80.93;;;16.27;;
24961;SDS011;12992;50.884;13.668;2023-01-23T08:51:19;166.57;;;17.65;;
24961;SDS011;12992;50.884;13.668;2023-01-23T08:53:44;58.08;;;16.08;;
24961;SDS011;12992;50.884;13.668;2023-01-23T08:56:13;72.00;;;16.98;;
24961;SDS011;12992;50.884;13.668;2023-01-23T08:58:40;94.47;;;16.95;;
24961;SDS011;12992;50.884;13.668;2023-01-23T09:01:09;45.05;;;16.63;;
24961;SDS011;12992;50.884;13.668;2023-01-23T09:03:39;65.90;;;17.65;;
24961;SDS011;12992;50.884;13.668;2023-01-23T09:06:04;49.72;;;16.92;;
24961;SDS011;12992;50.884;13.668;2023-01-23T09:08:30;58.17;;;19.00;;
24961;SDS011;12992;50.884;13.668;2023-01-23T09:10:59;68.38;;;17.98;;
24961;SDS011;12992;50.884;13.668;2023-01-23T09:13:26;47.63;;;19.30;;
24961;SDS011;12992;50.884;13.668;2023-01-23T09:15:51;42.38;;;17.60;;
24961;SDS011;12992;50.884;13.668;2023-01-23T09:18:16;66.43;;;23.33;;
24961;SDS011;12992;50.884;13.668;2023-01-23T09:20:42;88.15;;;19.20;;
24961;SDS011;12992;50.884;13.668;2023-01-23T09:23:07;44.65;;;17.35;;
24961;SDS011;12992;50.884;13.668;2023-01-23T09:25:33;51.60;;;17.60;;
24961;SDS011;12992;50.884;13.668;2023-01-23T09:27:58;44.45;;;19.63;;
24961;SDS011;12992;50.884;13.668;2023-01-23T09:30:23;51.05;;;19.27;;
24961;SDS011;12992;50.884;13.668;2023-01-23T09:32:49;43.72;;;16.77;;
24961;SDS011;12992;50.884;13.668;2023-01-23T09:35:14;41.38;;;17.83;;
24961;SDS011;12992;50.884;13.668;2023-01-23T09:37:39;93.22;;;18.92;;
24961;SDS011;12992;50.884;13.668;2023-01-23T09:40:24;53.45;;;19.15;;
24961;SDS011;12992;50.884;13.668;2023-01-23T09:42:52;50.33;;;17.95;;
24961;SDS011;12992;50.884;13.668;2023-01-23T09:45:19;100.45;;;19.45;;
24961;SDS011;12992;50.884;13.668;2023-01-23T09:47:50;56.45;;;18.05;;
24961;SDS011;12992;50.884;13.668;2023-01-23T09:50:35;48.70;;;18.30;;
24961;SDS011;12992;50.884;13.668;2023-01-23T09:53:11;71.28;;;18.38;;
24961;SDS011;12992;50.884;13.668;2023-01-23T09:55:41;49.88;;;18.10;;
24961;SDS011;12992;50.884;13.668;2023-01-23T09:58:21;40.55;;;17.30;;
24961;SDS011;12992;50.884;13.668;2023-01-23T10:00:51;59.03;;;18.23;;
24961;SDS011;12992;50.884;13.668;2023-01-23T10:03:17;53.70;;;18.60;;
24961;SDS011;12992;50.884;13.668;2023-01-23T10:05:55;40.50;;;17.05;;
24961;SDS011;12992;50.884;13.668;2023-01-23T10:22:23;50.17;;;18.30;;
24961;SDS011;12992;50.884;13.668;2023-01-23T10:24:54;43.90;;;18.98;;
24961;SDS011;12992;50.884;13.668;2023-01-23T10:30:00;41.78;;;17.73;;
24961;SDS011;12992;50.884;13.668;2023-01-23T10:32:30;47.47;;;18.05;;
24961;SDS011;12992;50.884;13.668;2023-01-23T10:35:09;46.45;;;18.02;;
24961;SDS011;12992;50.884;13.668;2023-01-23T10:38:00;44.95;;;17.20;;
24961;SDS011;12992;50.884;13.668;2023-01-23T10:40:35;52.05;;;17.52;;
24961;SDS011;12992;50.884;13.668;2023-01-23T10:43:20;59.92;;;17.83;;
24961;SDS011;12992;50.884;13.668;2023-01-23T10:45:46;101.85;;;20.60;;
24961;SDS011;12992;50.884;13.668;2023-01-23T10:50:56;51.85;;;19.45;;
24961;SDS011;12992;50.884;13.668;2023-01-23T10:53:22;95.15;;;18.60;;
24961;SDS011;12992;50.884;13.668;2023-01-23T10:55:49;92.97;;;21.73;;
24961;SDS011;12992;50.884;13.668;2023-01-23T10:58:26;52.15;;;19.25;;
24961;SDS011;12992;50.884;13.668;2023-01-23T11:00:53;48.60;;;19.90;;
24961;SDS011;12992;50.884;13.668;2023-01-23T11:06:06;47.65;;;19.63;;
24961;SDS011;12992;50.884;13.668;2023-01-23T11:08:42;75.40;;;19.33;;
24961;SDS011;12992;50.884;13.668;2023-01-23T11:13:44;71.90;;;19.95;;
24961;SDS011;12992;50.884;13.668;2023-01-23T11:16:18;77.55;;;20.08;;
24961;SDS011;12992;50.884;13.668;2023-01-23T11:19:01;67.15;;;18.50;;
24961;SDS011;12992;50.884;13.668;2023-01-23T11:21:37;71.93;;;19.45;;
24961;SDS011;12992;50.884;13.668;2023-01-23T11:24:20;42.20;;;18.08;;
24961;SDS011;12992;50.884;13.668;2023-01-23T11:26:49;91.32;;;18.60;;
24961;SDS011;12992;50.884;13.668;2023-01-23T11:29:23;96.75;;;18.52;;
24961;SDS011;12992;50.884;13.668;2023-01-23T11:31:56;101.47;;;19.65;;
24961;SDS011;12992;50.884;13.668;2023-01-23T11:34:26;52.75;;;18.40;;
24961;SDS011;12992;50.884;13.668;2023-01-23T11:37:11;50.38;;;16.65;;
24961;SDS011;12992;50.884;13.668;2023-01-23T11:39:44;58.92;;;18.23;;
24961;SDS011;12992;50.884;13.668;2023-01-23T11:42:14;47.00;;;17.08;;
24961;SDS011;12992;50.884;13.668;2023-01-23T11:44:41;85.78;;;19.40;;
24961;SDS011;12992;50.884;13.668;2023-01-23T11:47:31;43.80;;;18.05;;
24961;SDS011;12992;50.884;13.668;2023-01-23T11:50:21;49.38;;;17.98;;
24961;SDS011;12992;50.884;13.668;2023-01-23T12:01:55;40.63;;;16.80;;
24961;SDS011;12992;50.884;13.668;2023-01-23T12:07:16;40.10;;;18.35;;
24961;SDS011;12992;50.884;13.668;2023-01-23T12:09:51;37.03;;;17.55;;
24961;SDS011;12992;50.884;13.668;2023-01-23T12:15:37;47.78;;;19.67;;
24961;SDS011;12992;50.884;13.668;2023-01-23T12:21:13;39.03;;;15.90;;
24961;SDS011;12992;50.884;13.668;2023-01-23T12:23:49;43.10;;;16.77;;
24961;SDS011;12992;50.884;13.668;2023-01-23T12:26:40;32.05;;;15.35;;
24961;SDS011;12992;50.884;13.668;2023-01-23T12:40:25;29.40;;;14.30;;
24961;SDS011;12992;50.884;13.668;2023-01-23T12:43:12;37.15;;;16.35;;
24961;SDS011;12992;50.884;13.668;2023-01-23T12:45:47;36.13;;;16.30;;
24961;SDS011;12992;50.884;13.668;2023-01-23T12:48:29;41.70;;;17.05;;
24961;SDS011;12992;50.884;13.668;2023-01-23T12:51:05;37.20;;;16.80;;
24961;SDS011;12992;50.884;13.668;2023-01-23T12:53:36;39.15;;;14.77;;
24961;SDS011;12992;50.884;13.668;2023-01-23T12:58:52;39.95;;;16.27;;
24961;SDS011;12992;50.884;13.668;2023-01-23T13:01:40;34.28;;;15.52;;
24961;SDS011;12992;50.884;13.668;2023-01-23T13:09:49;38.80;;;16.15;;
24961;SDS011;12992;50.884;13.668;2023-01-23T13:12:29;39.08;;;15.57;;
24961;SDS011;12992;50.884;13.668;2023-01-23T13:15:40;39.67;;;16.30;;
24961;SDS011;12992;50.884;13.668;2023-01-23T13:17:43;38.45;;;15.73;;
24961;SDS011;12992;50.884;13.668;2023-01-23T13:20:22;39.38;;;14.60;;
24961;SDS011;12992;50.884;13.668;2023-01-23T13:25:46;42.75;;;21.15;;
24961;SDS011;12992;50.884;13.668;2023-01-23T13:28:24;48.15;;;18.83;;
24961;SDS011;12992;50.884;13.668;2023-01-23T13:30:57;49.33;;;17.55;;
24961;SDS011;12992;50.884;13.668;2023-01-23T13:35:52;36.38;;;15.80;;
24961;SDS011;12992;50.884;13.668;2023-01-23T13:41:19;44.00;;;17.20;;
24961;SDS011;12992;50.884;13.668;2023-01-23T13:46:39;47.67;;;18.20;;
24961;SDS011;12992;50.884;13.668;2023-01-23T13:49:27;57.17;;;18.83;;
24961;SDS011;12992;50.884;13.668;2023-01-23T13:52:17;46.75;;;17.85;;
24961;SDS011;12992;50.884;13.668;2023-01-23T13:55:13;61.80;;;19.00;;
24961;SDS011;12992;50.884;13.668;2023-01-23T13:57:57;46.65;;;18.30;;
24961;SDS011;12992;50.884;13.668;2023-01-23T14:00:23;48.90;;;18.83;;
24961;SDS011;12992;50.884;13.668;2023-01-23T14:02:56;45.90;;;18.15;;
24961;SDS011;12992;50.884;13.668;2023-01-23T14:06:06;63.65;;;18.65;;
24961;SDS011;12992;50.884;13.668;2023-01-23T14:08:33;54.75;;;18.85;;
24961;SDS011;12992;50.884;13.668;2023-01-23T14:10:58;50.05;;;18.75;;
24961;SDS011;12992;50.884;13.668;2023-01-23T14:13:25;51.45;;;19.92;;
24961;SDS011;12992;50.884;13.668;2023-01-23T14:15:51;45.63;;;19.10;;
24961;SDS011;12992;50.884;13.668;2023-01-23T14:18:44;51.92;;;20.13;;
24961;SDS011;12992;50.884;13.668;2023-01-23T14:21:16;49.95;;;18.63;;
24961;SDS011;12992;50.884;13.668;2023-01-23T14:23:42;43.95;;;17.15;;
24961;SDS011;12992;50.884;13.668;2023-01-23T14:26:09;45.05;;;18.88;;
24961;SDS011;12992;50.884;13.668;2023-01-23T14:28:38;42.45;;;16.73;;
24961;SDS011;12992;50.884;13.668;2023-01-23T14:31:04;45.13;;;18.52;;
24961;SDS011;12992;50.884;13.668;2023-01-23T14:33:40;58.03;;;18.65;;
24961;SDS011;12992;50.884;13.668;2023-01-23T14:36:12;55.15;;;19.02;;
24961;SDS011;12992;50.884;13.668;2023-01-23T14:38:39;77.88;;;20.77;;
24961;SDS011;12992;50.884;13.668;2023-01-23T14:41:07;47.95;;;18.67;;
24961;SDS011;12992;50.884;13.668;2023-01-23T14:43:33;92.32;;;21.40;;
24961;SDS011;12992;50.884;13.668;2023-01-23T14:48:28;52.80;;;19.27;;
24961;SDS011;12992;50.884;13.668;2023-01-23T14:51:02;57.55;;;20.63;;
24961;SDS011;12992;50.884;13.668;2023-01-23T14:53:30;54.50;;;21.25;;
24961;SDS011;12992;50.884;13.668;2023-01-23T14:55:55;99.45;;;19.95;;
24961;SDS011;12992;50.884;13.668;2023-01-23T14:58:23;62.65;;;21.08;;
24961;SDS011;12992;50.884;13.668;2023-01-23T15:00:52;128.82;;;22.63;;
24961;SDS011;12992;50.884;13.668;2023-01-23T15:03:37;57.30;;;21.00;;
24961;SDS011;12992;50.884;13.668;2023-01-23T15:06:06;113.32;;;21.60;;
24961;SDS011;12992;50.884;13.668;2023-01-23T15:08:35;64.18;;;19.90;;
24961;SDS011;12992;50.884;13.668;2023-01-23T15:11:01;95.97;;;20.55;;
24961;SDS011;12992;50.884;13.668;2023-01-23T15:13:35;100.32;;;21.23;;
24961;SDS011;12992;50.884;13.668;2023-01-23T15:16:11;136.27;;;22.08;;
24961;SDS011;12992;50.884;13.668;2023-01-23T15:18:38;84.30;;;20.75;;
24961;SDS011;12992;50.884;13.668;2023-01-23T15:21:29;57.05;;;20.80;;
24961;SDS011;12992;50.884;13.668;2023-01-23T15:24:03;103.72;;;21.25;;
24961;SDS011;12992;50.884;13.668;2023-01-23T15:26:31;129.23;;;21.17;;
24961;SDS011;12992;50.884;13.668;2023-01-23T15:31:33;157.63;;;21.98;;
24961;SDS011;12992;50.884;13.668;2023-01-23T15:36:44;94.15;;;22.52;;
24961;SDS011;12992;50.884;13.668;2023-01-23T15:39:17;84.85;;;20.35;;
24961;SDS011;12992;50.884;13.668;2023-01-23T15:41:50;148.48;;;23.38;;
24961;SDS011;12992;50.884;13.668;2023-01-23T15:44:19;129.15;;;22.30;;
24961;SDS011;12992;50.884;13.668;2023-01-23T15:46:46;133.95;;;22.58;;
24961;SDS011;12992;50.884;13.668;2023-01-23T15:49:11;235.25;;;24.70;;
24961;SDS011;12992;50.884;13.668;2023-01-23T15:51:37;231.73;;;29.27;;
24961;SDS011;12992;50.884;13.668;2023-01-23T15:54:03;116.65;;;21.73;;
24961;SDS011;12992;50.884;13.668;2023-01-23T15:56:30;154.45;;;25.08;;
24961;SDS011;12992;50.884;13.668;2023-01-23T15:58:57;226.25;;;23.73;;